createdAt,value
2018-06-25T00:02:08.036Z,5.67
2018-06-25T00:04:36.211Z,5.77
2018-06-25T00:07:04.446Z,6.10
2018-06-25T00:09:33.295Z,5.67
2018-06-25T00:12:01.487Z,5.07
2018-06-25T00:14:29.655Z,5.53
2018-06-25T00:16:57.752Z,5.37
2018-06-25T00:19:25.967Z,6.03
2018-06-25T00:21:54.137Z,6.20
2018-06-25T00:24:22.664Z,5.20
2018-06-25T00:26:50.870Z,4.83
2018-06-25T00:29:18.973Z,5.50
2018-06-25T00:31:47.235Z,5.30
2018-06-25T00:34:15.365Z,5.33
2018-06-25T00:36:43.471Z,4.57
2018-06-25T00:39:12.068Z,4.97
2018-06-25T00:41:40.329Z,5.10
2018-06-25T00:44:08.424Z,5.10
2018-06-25T00:46:36.638Z,4.73
2018-06-25T00:49:04.747Z,4.20
2018-06-25T00:51:32.923Z,4.87
2018-06-25T00:54:01.173Z,4.70
2018-06-25T00:56:29.986Z,4.93
2018-06-25T00:59:15.138Z,4.73
2018-06-25T01:01:43.232Z,4.90
2018-06-25T01:04:11.349Z,4.27
2018-06-25T01:06:40.022Z,4.50
2018-06-25T01:09:10.165Z,5.03
2018-06-25T01:11:38.225Z,4.33
2018-06-25T01:14:06.495Z,4.67
2018-06-25T01:16:34.623Z,4.30
2018-06-25T01:19:02.694Z,4.73
2018-06-25T01:21:30.770Z,4.10
2018-06-25T01:23:58.829Z,4.50
2018-06-25T01:26:26.895Z,4.47
2018-06-25T01:28:55.106Z,4.80
2018-06-25T01:31:23.333Z,4.60
2018-06-25T01:33:51.632Z,4.60
2018-06-25T01:36:19.724Z,4.97
2018-06-25T01:38:47.933Z,5.17
2018-06-25T01:41:16.050Z,4.80
2018-06-25T01:43:44.092Z,5.03
2018-06-25T01:46:12.213Z,5.23
2018-06-25T01:48:40.272Z,5.93
2018-06-25T01:51:08.413Z,5.90
2018-06-25T01:53:36.527Z,5.90
2018-06-25T01:56:05.720Z,5.90
2018-06-25T01:58:34.014Z,6.60
2018-06-25T02:01:02.222Z,6.17
2018-06-25T02:03:30.401Z,6.47
2018-06-25T02:05:58.546Z,6.23
2018-06-25T02:08:26.782Z,6.57
2018-06-25T02:10:54.990Z,7.20
2018-06-25T02:13:23.066Z,6.17
2018-06-25T02:15:51.617Z,6.50
2018-06-25T02:18:20.035Z,5.80
2018-06-25T02:20:48.145Z,5.90
2018-06-25T02:23:16.401Z,7.20
2018-06-25T02:25:44.645Z,5.93
2018-06-25T02:28:12.711Z,5.70
2018-06-25T02:30:41.510Z,6.00
2018-06-25T02:33:09.685Z,5.97
2018-06-25T02:35:38.392Z,6.27
2018-06-25T02:38:06.572Z,6.67
2018-06-25T02:40:34.871Z,5.80
2018-06-25T02:43:03.026Z,7.07
2018-06-25T02:45:31.160Z,5.83
2018-06-25T02:47:59.313Z,6.73
2018-06-25T02:50:27.427Z,5.63
2018-06-25T02:52:55.512Z,6.03
2018-06-25T02:55:23.766Z,6.47
2018-06-25T02:57:58.620Z,6.40
2018-06-25T03:00:26.703Z,6.87
2018-06-25T03:02:55.576Z,6.63
2018-06-25T03:05:24.302Z,6.47
2018-06-25T03:07:52.477Z,6.40
2018-06-25T03:10:20.685Z,5.90
2018-06-25T03:12:48.865Z,6.23
2018-06-25T03:15:16.982Z,6.93
2018-06-25T03:17:45.195Z,6.73
2018-06-25T03:20:13.290Z,6.83
2018-06-25T03:22:41.558Z,7.27
2018-06-25T03:25:09.763Z,6.73
2018-06-25T03:27:37.905Z,7.63
2018-06-25T03:30:06.009Z,5.90
2018-06-25T03:32:34.141Z,6.87
2018-06-25T03:35:02.280Z,6.20
2018-06-25T03:37:30.348Z,6.00
2018-06-25T03:39:58.486Z,6.40
2018-06-25T03:42:26.620Z,7.07
2018-06-25T03:44:54.805Z,6.17
2018-06-25T03:47:22.859Z,6.73
2018-06-25T03:49:50.936Z,7.03
2018-06-25T03:52:19.594Z,6.20
2018-06-25T03:54:48.594Z,6.53
2018-06-25T03:57:17.001Z,6.93
2018-06-25T03:59:45.111Z,5.93
2018-06-25T04:02:13.344Z,5.97
2018-06-25T04:04:41.470Z,6.47
2018-06-25T04:07:09.618Z,6.60
2018-06-25T04:09:37.776Z,6.40
2018-06-25T04:12:06.037Z,6.43
2018-06-25T04:14:35.082Z,6.07
2018-06-25T04:17:03.931Z,5.80
2018-06-25T04:19:31.998Z,5.67
2018-06-25T04:22:00.124Z,5.97
2018-06-25T04:24:28.234Z,6.10
2018-06-25T04:26:56.398Z,6.57
2018-06-25T04:29:24.580Z,6.40
2018-06-25T04:31:52.736Z,6.63
2018-06-25T04:34:22.442Z,7.40
2018-06-25T04:36:51.120Z,6.00
2018-06-25T04:39:19.215Z,6.50
2018-06-25T04:41:47.307Z,6.60
2018-06-25T04:44:15.358Z,5.83
2018-06-25T04:46:43.538Z,6.90
2018-06-25T04:49:11.615Z,6.27
2018-06-25T04:51:39.753Z,6.20
2018-06-25T04:54:07.882Z,6.70
2018-06-25T04:56:36.074Z,6.53
2018-06-25T04:59:04.255Z,6.00
2018-06-25T05:01:32.437Z,6.40
2018-06-25T05:04:00.647Z,6.10
2018-06-25T05:06:28.695Z,6.03
2018-06-25T05:08:56.849Z,6.37
2018-06-25T05:11:25.035Z,6.30
2018-06-25T05:13:53.540Z,6.00
2018-06-25T05:16:22.339Z,5.73
2018-06-25T05:18:50.531Z,6.10
2018-06-25T05:21:18.682Z,5.27
2018-06-25T05:23:46.807Z,4.90
2018-06-25T05:26:14.948Z,4.73
2018-06-25T05:28:43.080Z,4.87
2018-06-25T05:31:11.223Z,5.00
2018-06-25T05:33:39.380Z,5.10
2018-06-25T05:36:07.590Z,4.17
2018-06-25T05:38:35.653Z,4.60
2018-06-25T05:41:03.830Z,4.40
2018-06-25T05:43:32.006Z,5.00
2018-06-25T05:46:00.183Z,4.27
2018-06-25T05:48:28.326Z,4.43
2018-06-25T05:50:56.648Z,4.73
2018-06-25T05:53:24.791Z,5.27
2018-06-25T05:55:52.908Z,4.80
2018-06-25T05:58:21.064Z,4.70
2018-06-25T06:00:49.244Z,5.27
2018-06-25T06:03:17.479Z,5.47
2018-06-25T06:05:45.670Z,5.27
2018-06-25T06:08:13.855Z,6.50
2018-06-25T06:10:41.971Z,5.37
2018-06-25T06:13:10.061Z,5.17
2018-06-25T06:15:38.196Z,5.93
2018-06-25T06:18:06.564Z,6.23
2018-06-25T06:20:34.749Z,5.60
2018-06-25T06:23:02.813Z,5.73
2018-06-25T06:25:31.058Z,5.80
2018-06-25T06:27:59.233Z,5.47
2018-06-25T06:30:27.316Z,6.20
2018-06-25T06:32:55.484Z,5.03
2018-06-25T06:35:23.686Z,4.77
2018-06-25T06:37:51.894Z,4.03
2018-06-25T06:40:20.234Z,5.20
2018-06-25T06:42:48.311Z,5.13
2018-06-25T06:45:16.441Z,4.53
2018-06-25T06:47:44.544Z,4.90
2018-06-25T06:50:12.613Z,5.03
2018-06-25T06:52:40.699Z,3.93
2018-06-25T06:55:08.794Z,4.63
2018-06-25T06:57:37.092Z,3.97
2018-06-25T07:00:05.405Z,5.00
2018-06-25T07:02:33.526Z,4.73
2018-06-25T07:05:01.685Z,5.33
2018-06-25T07:07:29.900Z,4.73
2018-06-25T07:09:58.004Z,4.80
2018-06-25T07:12:26.199Z,4.87
2018-06-25T07:14:55.175Z,4.73
2018-06-25T07:17:23.343Z,4.77
2018-06-25T07:19:51.450Z,4.83
2018-06-25T07:22:19.639Z,4.80
2018-06-25T07:24:47.794Z,5.23
2018-06-25T07:27:15.942Z,5.43
2018-06-25T07:29:44.127Z,4.67
2018-06-25T07:32:12.260Z,5.20
2018-06-25T07:34:40.374Z,5.67
2018-06-25T07:37:08.631Z,6.43
2018-06-25T07:39:36.968Z,5.87
2018-06-25T07:42:05.113Z,6.17
2018-06-25T07:44:33.236Z,6.27
2018-06-25T07:47:01.372Z,6.60
2018-06-25T07:49:29.522Z,6.37
2018-06-25T07:51:57.669Z,4.87
2018-06-25T07:54:26.765Z,5.30
2018-06-25T07:56:54.958Z,4.70
2018-06-25T07:59:23.129Z,3.87
2018-06-25T08:01:51.330Z,4.73
2018-06-25T08:04:19.504Z,5.20
2018-06-25T08:06:47.675Z,5.30
2018-06-25T08:09:15.843Z,5.70
2018-06-25T08:11:44.003Z,4.63
2018-06-25T08:14:12.111Z,5.10
2018-06-25T08:16:40.386Z,5.00
2018-06-25T08:19:08.715Z,4.73
2018-06-25T08:21:37.180Z,4.93
2018-06-25T08:24:05.481Z,4.63
2018-06-25T08:26:34.289Z,3.93
2018-06-25T08:29:02.498Z,4.40
2018-06-25T08:31:30.680Z,3.57
2018-06-25T08:33:58.875Z,3.60
2018-06-25T08:36:27.133Z,4.20
2018-06-25T08:38:55.426Z,4.37
2018-06-25T08:41:23.672Z,3.60
2018-06-25T08:43:51.885Z,3.87
2018-06-25T08:46:20.234Z,4.13
2018-06-25T08:48:48.429Z,4.13
2018-06-25T08:51:16.607Z,4.47
2018-06-25T08:53:44.755Z,4.20
2018-06-25T08:56:12.897Z,3.90
2018-06-25T08:58:41.100Z,4.43
2018-06-25T09:01:09.262Z,4.20
2018-06-25T09:03:37.439Z,4.60
2018-06-25T09:06:05.646Z,4.43
2018-06-25T09:08:33.945Z,4.97
2018-06-25T09:11:02.117Z,4.17
2018-06-25T09:13:30.216Z,4.50
2018-06-25T09:15:58.351Z,3.60
2018-06-25T09:18:26.524Z,3.33
2018-06-25T09:20:54.650Z,3.63
2018-06-25T09:23:22.793Z,3.70
2018-06-25T09:25:50.866Z,3.50
2018-06-25T09:28:18.988Z,4.00
2018-06-25T09:30:47.106Z,3.43
2018-06-25T09:33:15.928Z,3.50
2018-06-25T09:35:44.205Z,3.57
2018-06-25T09:38:12.481Z,4.07
2018-06-25T09:40:40.731Z,3.67
2018-06-25T09:43:09.490Z,3.10
2018-06-25T09:45:37.658Z,2.33
2018-06-25T09:48:06.190Z,2.53
2018-06-25T09:50:34.953Z,2.67
2018-06-25T09:53:03.021Z,2.20
2018-06-25T09:55:31.271Z,2.37
2018-06-25T09:57:59.609Z,2.47
2018-06-25T10:00:33.903Z,2.57
2018-06-25T10:03:02.046Z,2.40
2018-06-25T10:05:30.257Z,2.40
2018-06-25T10:07:58.442Z,2.13
2018-06-25T10:10:26.615Z,2.50
2018-06-25T10:12:55.090Z,1.93
2018-06-25T10:15:23.263Z,2.23
2018-06-25T10:17:51.445Z,2.10
2018-06-25T10:20:19.655Z,1.80
2018-06-25T10:22:47.856Z,2.13
2018-06-25T10:25:16.026Z,1.87
2018-06-25T10:27:44.250Z,2.00
2018-06-25T10:30:12.473Z,2.00
2018-06-25T10:32:40.638Z,1.70
2018-06-25T10:35:08.864Z,1.60
2018-06-25T10:37:36.989Z,1.40
2018-06-25T10:40:05.182Z,1.60
2018-06-25T10:42:33.481Z,1.90
2018-06-25T10:45:01.632Z,1.50
2018-06-25T10:47:29.952Z,1.60
2018-06-25T10:49:58.149Z,1.60
2018-06-25T10:52:26.463Z,1.37
2018-06-25T10:54:54.663Z,1.60
2018-06-25T10:57:22.908Z,1.70
2018-06-25T10:59:51.195Z,1.47
2018-06-25T11:02:19.189Z,1.50
2018-06-25T11:04:47.312Z,2.00
2018-06-25T11:07:15.564Z,1.90
2018-06-25T11:09:43.701Z,1.63
2018-06-25T11:12:11.939Z,1.80
2018-06-25T11:14:40.091Z,1.90
2018-06-25T11:17:08.909Z,1.87
2018-06-25T11:19:37.089Z,1.90
2018-06-25T11:22:05.273Z,2.30
2018-06-25T11:24:33.565Z,1.90
2018-06-25T11:27:01.962Z,2.00
2018-06-25T11:29:30.047Z,2.10
2018-06-25T11:31:58.349Z,1.90
2018-06-25T11:34:26.555Z,2.10
2018-06-25T11:36:54.708Z,2.30
2018-06-25T11:39:23.089Z,2.23
2018-06-25T11:41:51.324Z,1.90
2018-06-25T11:44:19.497Z,1.80
2018-06-25T11:46:47.807Z,1.83
2018-06-25T11:49:16.014Z,1.80
2018-06-25T11:51:44.180Z,2.00
2018-06-25T11:54:12.303Z,1.60
2018-06-25T11:56:40.546Z,1.80
2018-06-25T11:59:08.716Z,1.43
2018-06-25T12:01:36.884Z,1.77
2018-06-25T12:04:05.077Z,1.70
2018-06-25T12:06:33.213Z,1.50
2018-06-25T12:09:01.929Z,1.43
2018-06-25T12:11:30.129Z,1.80
2018-06-25T12:13:58.288Z,1.60
2018-06-25T12:16:26.534Z,1.37
2018-06-25T12:18:54.844Z,1.73
2018-06-25T12:21:22.981Z,1.20
2018-06-25T12:23:51.130Z,1.40
2018-06-25T12:26:19.192Z,1.30
2018-06-25T12:28:47.326Z,1.03
2018-06-25T12:31:15.527Z,1.23
2018-06-25T12:33:43.696Z,1.30
2018-06-25T12:36:12.154Z,1.30
2018-06-25T12:38:40.229Z,1.47
2018-06-25T12:41:09.088Z,1.20
2018-06-25T12:43:37.386Z,1.30
2018-06-25T12:46:05.514Z,1.23
2018-06-25T12:48:33.647Z,1.40
2018-06-25T12:51:01.845Z,1.40
2018-06-25T12:53:29.943Z,1.23
2018-06-25T12:55:58.596Z,1.13
2018-06-25T12:58:26.721Z,1.30
2018-06-25T13:00:54.866Z,1.50
2018-06-25T13:03:23.030Z,1.23
2018-06-25T13:05:51.129Z,1.30
2018-06-25T13:08:19.247Z,1.20
2018-06-25T13:10:48.193Z,1.40
2018-06-25T13:13:16.253Z,1.27
2018-06-25T13:15:44.357Z,1.10
2018-06-25T13:18:12.569Z,1.20
2018-06-25T13:20:40.719Z,1.10
2018-06-25T13:23:08.855Z,1.00
2018-06-25T13:25:37.029Z,1.17
2018-06-25T13:28:05.503Z,0.90
2018-06-25T13:30:33.770Z,1.00
2018-06-25T13:33:01.990Z,0.87
2018-06-25T13:35:30.142Z,1.17
2018-06-25T13:37:58.355Z,1.13
2018-06-25T13:40:26.512Z,1.00
2018-06-25T13:42:54.826Z,1.00
2018-06-25T13:45:23.102Z,1.10
2018-06-25T13:47:51.222Z,0.87
2018-06-25T13:50:19.467Z,1.10
2018-06-25T13:52:47.719Z,1.10
2018-06-25T13:55:15.936Z,1.07
2018-06-25T13:57:44.737Z,1.07
2018-06-25T14:00:12.906Z,0.97
2018-06-25T14:02:41.098Z,1.10
2018-06-25T14:05:09.342Z,0.90
2018-06-25T14:07:37.549Z,0.80
2018-06-25T14:10:06.365Z,0.83
2018-06-25T14:12:35.138Z,0.90
2018-06-25T14:15:03.767Z,1.10
2018-06-25T14:17:32.043Z,0.90
2018-06-25T14:20:00.241Z,1.17
2018-06-25T14:22:28.499Z,1.17
2018-06-25T14:24:59.288Z,0.83
2018-06-25T14:27:32.559Z,1.30
2018-06-25T14:30:01.017Z,0.80
2018-06-25T14:32:34.127Z,1.10
2018-06-25T14:35:08.146Z,2.17
2018-06-25T14:37:36.489Z,1.20
2018-06-25T14:40:04.721Z,1.23
2018-06-25T14:42:33.071Z,1.13
2018-06-25T14:45:01.311Z,1.03
2018-06-25T14:47:30.206Z,1.27
2018-06-25T14:49:58.468Z,1.13
2018-06-25T14:52:26.738Z,1.10
2018-06-25T14:54:54.941Z,1.40
2018-06-25T14:57:23.306Z,1.30
2018-06-25T14:59:51.490Z,1.20
2018-06-25T15:02:19.641Z,1.27
2018-06-25T15:04:47.927Z,1.30
2018-06-25T15:07:16.115Z,1.50
2018-06-25T15:09:44.279Z,1.40
2018-06-25T15:12:12.438Z,1.20
2018-06-25T15:14:41.879Z,1.63
2018-06-25T15:17:10.180Z,1.50
2018-06-25T15:19:38.628Z,1.50
2018-06-25T15:22:06.843Z,1.47
2018-06-25T15:24:35.118Z,1.50
2018-06-25T15:27:03.893Z,1.50
2018-06-25T15:29:32.802Z,1.40
2018-06-25T15:32:01.061Z,2.13
2018-06-25T15:34:29.272Z,1.90
2018-06-25T15:36:57.467Z,1.93
2018-06-25T15:39:25.931Z,1.50
2018-06-25T15:41:54.133Z,1.47
2018-06-25T15:44:22.342Z,1.57
2018-06-25T15:46:50.579Z,1.30
2018-06-25T15:49:18.683Z,1.50
2018-06-25T15:51:46.954Z,1.43
2018-06-25T15:54:15.245Z,2.00
2018-06-25T15:56:43.387Z,1.80
2018-06-25T15:59:11.657Z,2.07
2018-06-25T16:01:40.674Z,1.63
2018-06-25T16:04:08.779Z,1.63
2018-06-25T16:06:37.037Z,1.33
2018-06-25T16:09:06.571Z,1.50
2018-06-25T16:11:34.824Z,1.43
2018-06-25T16:14:03.339Z,1.50
2018-06-25T16:16:31.521Z,1.40
2018-06-25T16:18:59.779Z,1.47
2018-06-25T16:21:27.967Z,1.40
2018-06-25T16:23:56.059Z,1.97
2018-06-25T16:26:24.161Z,1.33
2018-06-25T16:28:52.413Z,1.40
2018-06-25T16:31:20.510Z,1.67
2018-06-25T16:33:48.611Z,1.60
2018-06-25T16:36:16.730Z,1.53
2018-06-25T16:38:44.875Z,1.47
2018-06-25T16:41:13.146Z,1.40
2018-06-25T16:43:41.338Z,1.37
2018-06-25T16:46:09.551Z,1.67
2018-06-25T16:48:37.786Z,1.90
2018-06-25T16:51:06.078Z,1.90
2018-06-25T16:53:34.255Z,1.23
2018-06-25T16:56:02.693Z,1.70
2018-06-25T16:58:31.063Z,1.37
2018-06-25T17:00:59.179Z,1.40
2018-06-25T17:03:28.101Z,1.80
2018-06-25T17:05:56.267Z,1.70
2018-06-25T17:08:24.360Z,1.80
2018-06-25T17:10:52.616Z,1.70
2018-06-25T17:13:21.261Z,1.63
2018-06-25T17:15:49.873Z,1.57
2018-06-25T17:18:18.254Z,2.00
2018-06-25T17:20:46.577Z,1.90
2018-06-25T17:23:14.775Z,1.90
2018-06-25T17:25:43.673Z,1.20
2018-06-25T17:28:11.903Z,1.50
2018-06-25T17:30:40.238Z,1.67
2018-06-25T17:33:08.422Z,1.47
2018-06-25T17:35:36.554Z,1.70
2018-06-25T17:38:04.741Z,1.47
2018-06-25T17:40:32.819Z,1.50
2018-06-25T17:43:00.971Z,1.53
2018-06-25T17:45:29.114Z,1.43
2018-06-25T17:47:57.610Z,1.60
2018-06-25T17:50:25.798Z,1.83
2018-06-25T17:52:54.085Z,1.60
2018-06-25T17:55:22.254Z,1.63
2018-06-25T17:57:50.557Z,1.53
2018-06-25T18:00:18.831Z,1.70
2018-06-25T18:02:47.017Z,1.70
2018-06-25T18:05:15.261Z,1.87
2018-06-25T18:07:44.384Z,1.57
2018-06-25T18:10:12.530Z,1.50
2018-06-25T18:12:40.622Z,1.40
2018-06-25T18:15:08.752Z,1.60
2018-06-25T18:17:37.197Z,1.83
2018-06-25T18:20:05.819Z,1.50
2018-06-25T18:22:34.114Z,1.73
2018-06-25T18:25:02.261Z,1.30
2018-06-25T18:27:30.589Z,1.40
2018-06-25T18:29:58.704Z,1.43
2018-06-25T18:32:26.857Z,2.03
2018-06-25T18:34:55.039Z,1.57
2018-06-25T18:37:23.255Z,1.60
2018-06-25T18:39:51.504Z,1.43
2018-06-25T18:42:19.717Z,1.70
2018-06-25T18:44:47.903Z,1.40
2018-06-25T18:47:16.051Z,1.80
2018-06-25T18:49:44.191Z,1.80
2018-06-25T18:52:12.467Z,1.70
2018-06-25T18:54:40.638Z,1.90
2018-06-25T18:57:08.850Z,1.77
2018-06-25T18:59:37.073Z,2.00
2018-06-25T19:02:05.288Z,2.03
2018-06-25T19:04:33.666Z,2.03
2018-06-25T19:07:01.841Z,1.90
2018-06-25T19:09:29.977Z,2.00
2018-06-25T19:11:58.298Z,2.00
2018-06-25T19:14:26.510Z,1.80
2018-06-25T19:16:54.652Z,2.00
2018-06-25T19:19:22.857Z,2.13
2018-06-25T19:21:51.041Z,1.83
2018-06-25T19:24:19.240Z,1.87
2018-06-25T19:26:47.441Z,2.00
2018-06-25T19:29:15.690Z,2.00
2018-06-25T19:31:44.021Z,2.20
2018-06-25T19:34:12.313Z,2.60
2018-06-25T19:36:40.495Z,2.17
2018-06-25T19:39:11.258Z,2.03
2018-06-25T19:41:39.517Z,2.10
2018-06-25T19:44:08.264Z,2.03
2018-06-25T19:46:36.430Z,2.30
2018-06-25T19:49:04.809Z,2.37
2018-06-25T19:51:33.029Z,2.77
2018-06-25T19:54:01.275Z,2.50
2018-06-25T19:56:29.505Z,2.73
2018-06-25T19:58:57.606Z,2.70
2018-06-25T20:01:25.789Z,2.07
2018-06-25T20:03:53.997Z,2.67
2018-06-25T20:06:22.051Z,2.80
2018-06-25T20:08:50.095Z,2.57
2018-06-25T20:11:18.241Z,3.20
2018-06-25T20:13:46.321Z,3.10
2018-06-25T20:16:14.502Z,3.07
2018-06-25T20:18:42.619Z,3.37
2018-06-25T20:21:10.667Z,3.50
2018-06-25T20:23:38.799Z,3.23
2018-06-25T20:26:06.930Z,3.57
2018-06-25T20:28:34.976Z,3.63
2018-06-25T20:31:03.128Z,3.60
2018-06-25T20:33:31.273Z,3.60
2018-06-25T20:35:59.500Z,3.43
2018-06-25T20:38:27.666Z,3.47
2018-06-25T20:40:55.801Z,3.70
2018-06-25T20:43:23.955Z,3.70
2018-06-25T20:45:52.051Z,3.77
2018-06-25T20:48:20.167Z,3.70
2018-06-25T20:50:48.357Z,4.00
2018-06-25T20:53:16.583Z,4.23
2018-06-25T20:55:44.667Z,3.93
2018-06-25T20:58:12.816Z,3.80
2018-06-25T21:00:40.896Z,4.13
2018-06-25T21:03:09.085Z,4.40
2018-06-25T21:05:37.208Z,3.70
2018-06-25T21:08:05.569Z,4.13
2018-06-25T21:10:33.655Z,4.20
2018-06-25T21:13:01.747Z,4.03
2018-06-25T21:15:29.796Z,4.30
2018-06-25T21:17:57.874Z,4.87
2018-06-25T21:20:26.055Z,3.97
2018-06-25T21:22:54.194Z,4.50
2018-06-25T21:25:22.436Z,5.10
2018-06-25T21:27:50.637Z,4.60
2018-06-25T21:30:19.494Z,4.70
2018-06-25T21:32:47.657Z,4.90
2018-06-25T21:35:15.765Z,4.93
2018-06-25T21:37:43.929Z,4.37
2018-06-25T21:40:11.989Z,4.13
2018-06-25T21:42:40.199Z,4.73
2018-06-25T21:45:08.346Z,4.60
2018-06-25T21:47:36.545Z,4.90
2018-06-25T21:50:04.787Z,4.70
2018-06-25T21:52:32.979Z,4.63
2018-06-25T21:55:01.089Z,5.13
2018-06-25T21:57:29.201Z,4.90
2018-06-25T21:59:57.625Z,4.73
2018-06-25T22:02:25.881Z,4.50
2018-06-25T22:04:54.020Z,5.60
2018-06-25T22:07:22.185Z,5.23
2018-06-25T22:09:50.242Z,5.43
2018-06-25T22:12:18.472Z,5.47
2018-06-25T22:14:46.547Z,5.40
2018-06-25T22:17:14.628Z,5.20
2018-06-25T22:19:42.791Z,6.03
2018-06-25T22:22:10.942Z,5.80
2018-06-25T22:24:38.987Z,6.07
2018-06-25T22:27:07.079Z,5.00
2018-06-25T22:29:35.179Z,5.77
2018-06-25T22:32:03.329Z,6.00
2018-06-25T22:34:31.398Z,5.43
2018-06-25T22:36:59.527Z,7.20
2018-06-25T22:39:27.641Z,6.90
2018-06-25T22:41:56.019Z,7.43
2018-06-25T22:44:24.160Z,8.03
2018-06-25T22:46:52.287Z,7.67
2018-06-25T22:49:20.420Z,7.03
2018-06-25T22:51:48.493Z,7.57
2018-06-25T22:54:16.620Z,7.27
2018-06-25T22:56:44.714Z,7.50
2018-06-25T22:59:19.755Z,7.87
2018-06-25T23:01:47.917Z,8.47
2018-06-25T23:04:16.028Z,8.43
2018-06-25T23:06:44.194Z,8.03
2018-06-25T23:09:12.542Z,8.40
2018-06-25T23:11:40.755Z,9.00
2018-06-25T23:14:08.855Z,7.97
2018-06-25T23:16:36.991Z,8.60
2018-06-25T23:19:05.145Z,8.43
2018-06-25T23:21:33.314Z,8.67
2018-06-25T23:24:01.548Z,8.57
2018-06-25T23:26:29.611Z,8.50
2018-06-25T23:28:57.722Z,8.60
2018-06-25T23:31:26.026Z,8.20
2018-06-25T23:33:54.452Z,8.13
2018-06-25T23:36:22.653Z,6.70
2018-06-25T23:38:50.768Z,6.43
2018-06-25T23:41:18.873Z,6.60
2018-06-25T23:43:47.020Z,6.90
2018-06-25T23:46:15.153Z,6.77
2018-06-25T23:48:43.342Z,6.70
2018-06-25T23:51:11.910Z,6.33
2018-06-25T23:53:40.755Z,6.83
2018-06-25T23:56:08.774Z,6.43
2018-06-25T23:58:36.790Z,6.40
